Time;durP1;ratioP1;P1;durP2;ratioP2;P2;SDS_P1;SDS_P2;PMS_P1;PMS_P2;Temp;Humidity;BMP_temperature;BMP_pressure;BME280_temperature;BME280_humidity;BME280_pressure;Samples;Min_cycle;Max_cycle;Signal;HPM_P1;HPM_P2
2023/01/24 00:00:42;;;;;;;29.92;10.13;;;-1.00;99.90;;;;;;5112013;28;20043;-54
2023/01/24 00:03:12;;;;;;;29.10;11.27;;;-1.00;99.90;;;;;;5109105;28;20081;-55
2023/01/24 00:05:40;;;;;;;22.45;9.93;;;-1.10;99.90;;;;;;5112059;28;20065;-55
2023/01/24 00:08:06;;;;;;;23.58;9.93;;;-1.10;99.90;;;;;;5101285;28;20043;-56
2023/01/24 00:10:33;;;;;;;19.40;7.45;;;-1.10;99.90;;;;;;5093334;28;20109;-56
2023/01/24 00:13:00;;;;;;;22.35;9.50;;;-1.10;99.90;;;;;;5111381;28;20639;-57
2023/01/24 00:15:27;;;;;;;14.10;6.45;;;-1.10;99.90;;;;;;5111725;28;20096;-56
2023/01/24 00:17:53;;;;;;;19.58;8.57;;;-1.10;99.90;;;;;;5108291;28;20035;-56
2023/01/24 00:20:21;;;;;;;19.38;8.25;;;-1.10;99.90;;;;;;5111875;28;20044;-55
2023/01/24 00:22:48;;;;;;;19.58;8.68;;;-1.20;99.90;;;;;;5111227;28;20139;-56
2023/01/24 00:25:14;;;;;;;21.98;8.65;;;-1.20;99.90;;;;;;5111378;28;20097;-57
2023/01/24 00:27:41;;;;;;;20.40;9.43;;;-1.20;99.90;;;;;;5107138;28;20040;-56
2023/01/24 00:30:09;;;;;;;18.88;8.63;;;-1.20;99.90;;;;;;5093489;28;20045;-56
2023/01/24 00:32:35;;;;;;;21.83;8.73;;;-1.20;99.90;;;;;;5107413;28;20039;-56
2023/01/24 00:35:03;;;;;;;23.38;8.38;;;-1.20;99.90;;;;;;5101612;28;20047;-57
2023/01/24 00:37:30;;;;;;;;;;;-1.20;99.90;;;;;;5100856;28;20135;-55
2023/01/24 00:39:56;;;;;;;21.63;8.90;;;-1.20;99.90;;;;;;5111112;28;19924;-56
2023/01/24 00:42:23;;;;;;;17.45;8.60;;;-1.20;99.90;;;;;;5103622;28;20488;-57
2023/01/24 00:44:50;;;;;;;18.13;8.05;;;-1.20;99.90;;;;;;5103107;28;20044;-56
2023/01/24 00:47:17;;;;;;;17.58;8.77;;;-1.20;99.90;;;;;;5109584;28;20040;-55
2023/01/24 00:49:43;;;;;;;21.95;9.57;;;-1.30;99.90;;;;;;5101291;28;20112;-53
2023/01/24 00:52:10;;;;;;;20.33;8.95;;;-1.30;99.90;;;;;;5109955;28;20043;-55
2023/01/24 00:54:37;;;;;;;17.15;8.88;;;-1.30;99.90;;;;;;5103547;28;20040;-56
2023/01/24 00:57:04;;;;;;;20.20;8.70;;;-1.30;99.90;;;;;;5092856;28;20139;-55
2023/01/24 00:59:30;;;;;;;20.25;9.25;;;-1.30;99.90;;;;;;5111185;28;20499;-52
2023/01/24 01:01:57;;;;;;;19.42;8.77;;;-1.30;99.90;;;;;;5102122;28;20496;-54
2023/01/24 01:04:25;;;;;;;20.10;7.90;;;-1.40;99.90;;;;;;5108786;28;20036;-53
2023/01/24 01:06:53;;;;;;;19.27;8.50;;;-1.50;99.90;;;;;;5093307;28;20047;-53
2023/01/24 01:09:20;;;;;;;22.60;9.63;;;-1.50;99.90;;;;;;5101467;28;20040;-54
2023/01/24 01:11:46;;;;;;;14.23;6.97;;;-1.40;99.90;;;;;;5098423;28;20047;-54
2023/01/24 01:14:13;;;;;;;20.17;9.05;;;-1.40;99.90;;;;;;5107183;28;20043;-56
2023/01/24 01:16:41;;;;;;;20.50;9.65;;;-1.40;99.90;;;;;;5111293;28;20055;-55
2023/01/24 01:19:08;;;;;;;16.98;7.97;;;-1.40;99.90;;;;;;5101686;28;20544;-55
2023/01/24 01:21:35;;;;;;;25.02;10.45;;;-1.40;99.90;;;;;;5090834;28;20051;-56
2023/01/24 01:24:02;;;;;;;27.60;10.82;;;-1.40;99.90;;;;;;5089159;28;20036;-55
2023/01/24 01:26:29;;;;;;;27.17;10.85;;;-1.40;99.90;;;;;;5089334;28;20141;-56
2023/01/24 01:28:55;;;;;;;24.88;11.18;;;-1.40;99.90;;;;;;5110274;22;20138;-61
2023/01/24 01:31:22;;;;;;;18.20;8.55;;;-1.40;99.90;;;;;;5089327;28;20043;-61
2023/01/24 01:33:49;;;;;;;27.20;10.98;;;-1.40;99.90;;;;;;5088156;28;20108;-61
2023/01/24 01:36:16;;;;;;;20.20;9.63;;;-1.40;99.90;;;;;;5110989;28;20047;-61
2023/01/24 01:38:42;;;;;;;29.15;11.40;;;-1.30;99.90;;;;;;5092706;28;20043;-62
2023/01/24 01:41:12;;;;;;;20.23;10.20;;;-1.40;99.90;;;;;;5091811;28;20043;-61
2023/01/24 01:44:37;;;;;;;26.83;10.85;;;-1.40;99.90;;;;;;5092088;28;20043;-61
2023/01/24 01:46:29;;;;;;;22.70;10.38;;;-1.40;99.90;;;;;;5088560;28;20646;-62
2023/01/24 01:49:01;;;;;;;22.83;9.63;;;-1.50;99.90;;;;;;5092784;28;20504;-62
2023/01/24 01:51:30;;;;;;;23.67;9.85;;;-1.40;99.90;;;;;;5106380;28;20073;-63
2023/01/24 01:54:20;;;;;;;25.00;10.73;;;-1.40;99.90;;;;;;5092854;28;20044;-61
2023/01/24 01:56:57;;;;;;;21.92;9.80;;;-1.40;99.90;;;;;;5110412;28;20040;-63
2023/01/24 01:59:39;;;;;;;23.85;10.55;;;-1.50;99.90;;;;;;5092746;28;20043;-63
2023/01/24 02:02:08;;;;;;;24.10;10.07;;;-1.40;99.90;;;;;;5093662;28;20500;-61
2023/01/24 02:04:38;;;;;;;21.67;9.55;;;-1.40;99.90;;;;;;5094682;28;20052;-61
2023/01/24 02:07:16;;;;;;;21.92;9.30;;;-1.40;99.90;;;;;;5096406;28;20036;-62
2023/01/24 02:09:47;;;;;;;22.20;9.85;;;-1.40;99.90;;;;;;5114701;28;20546;-63
2023/01/24 02:12:32;;;;;;;21.30;9.63;;;-1.50;99.90;;;;;;5037687;28;20049;-63
2023/01/24 02:18:10;;;;;;;23.33;10.32;;;-1.50;99.90;;;;;;4952115;28;20456;-63
2023/01/24 02:20:43;;;;;;;21.13;8.57;;;-1.50;99.90;;;;;;4951948;28;20051;-63
2023/01/24 02:23:32;;;;;;;21.50;9.80;;;-1.50;99.90;;;;;;5003300;28;20126;-62
2023/01/24 02:26:10;;;;;;;16.35;8.63;;;-1.50;99.90;;;;;;5032942;28;20047;-62
2023/01/24 02:28:40;;;;;;;23.88;10.35;;;-1.50;99.90;;;;;;5051045;28;20041;-62
2023/01/24 02:31:06;;;;;;;20.73;9.43;;;-1.60;99.90;;;;;;5033682;28;20081;-62
2023/01/24 02:33:33;;;;;;;25.55;10.77;;;-1.60;99.90;;;;;;5043952;28;20053;-62
2023/01/24 02:36:15;;;;;;;23.75;9.15;;;-1.60;99.90;;;;;;5050986;28;20095;-62
2023/01/24 02:38:46;;;;;;;21.05;9.80;;;-1.60;99.90;;;;;;5033481;28;20139;-62
2023/01/24 02:41:15;;;;;;;19.38;9.15;;;-1.60;99.90;;;;;;5027633;28;20526;-62
2023/01/24 02:43:48;;;;;;;20.23;8.43;;;-1.60;99.90;;;;;;5082532;27;20427;-62
2023/01/24 02:46:16;;;;;;;21.45;8.82;;;-1.70;99.90;;;;;;5108015;28;20040;-62
2023/01/24 02:48:43;;;;;;;20.33;9.10;;;-1.70;99.90;;;;;;5095512;28;20048;-62
2023/01/24 02:53:55;;;;;;;19.27;8.48;;;-1.80;99.90;;;;;;5095707;28;20495;-62
2023/01/24 02:59:07;;;;;;;17.95;8.30;;;-1.90;99.90;;;;;;5095962;28;20057;-62
2023/01/24 03:01:35;;;;;;;18.70;8.25;;;-1.80;99.90;;;;;;5102560;27;20130;-62
2023/01/24 03:04:02;;;;;;;17.65;8.38;;;-1.90;99.90;;;;;;5109363;27;20088;-62
2023/01/24 03:06:30;;;;;;;19.38;8.70;;;-2.00;99.90;;;;;;5101926;28;20055;-62
2023/01/24 03:08:57;;;;;;;24.50;9.23;;;-2.00;99.90;;;;;;5095333;28;20050;-63
2023/01/24 03:11:36;;;;;;;17.17;8.02;;;-2.00;99.90;;;;;;5094916;28;20139;-62
2023/01/24 03:36:13;;;;;;;21.65;8.70;;;-2.20;99.90;;;;;;5094820;28;20473;-62
2023/01/24 03:41:28;;;;;;;16.90;6.27;;;-2.10;99.90;;;;;;5091320;28;20089;-62
2023/01/24 03:43:55;;;;;;;14.95;6.18;;;-2.00;99.90;;;;;;5112849;28;20040;-62
2023/01/24 03:46:22;;;;;;;21.17;8.18;;;-1.90;99.90;;;;;;5094677;28;20089;-63
2023/01/24 03:48:50;;;;;;;17.15;7.05;;;-2.00;99.90;;;;;;5093174;28;20048;-62
2023/01/24 03:54:07;;;;;;;18.58;7.57;;;-2.10;99.90;;;;;;5094326;28;20214;-62
2023/01/24 03:56:52;;;;;;;13.65;7.32;;;-2.10;99.90;;;;;;5094717;28;20047;-62
2023/01/24 03:59:21;;;;;;;21.55;8.20;;;-2.10;99.90;;;;;;5101509;28;20044;-62
2023/01/24 04:01:48;;;;;;;22.67;8.27;;;-2.20;99.90;;;;;;5097438;27;20042;-62
2023/01/24 04:05:12;;;;;;;18.88;8.50;;;-2.20;99.90;;;;;;5091171;28;20515;-62
2023/01/24 04:07:15;;;;;;;17.80;7.80;;;-2.20;99.90;;;;;;5077768;28;20085;-62
2023/01/24 04:09:55;;;;;;;17.85;7.55;;;-2.30;99.90;;;;;;5074104;28;20135;-62
2023/01/24 04:12:22;;;;;;;17.23;8.20;;;-2.30;99.90;;;;;;5115027;27;20035;-63
2023/01/24 04:14:49;;;;;;;21.58;9.20;;;-2.30;99.90;;;;;;5092451;28;20048;-62
2023/01/24 04:17:15;;;;;;;20.38;8.55;;;-2.30;99.90;;;;;;5092938;28;20504;-63
2023/01/24 04:19:46;;;;;;;17.73;7.78;;;-2.20;99.90;;;;;;5091338;28;20052;-63
2023/01/24 04:22:15;;;;;;;21.38;8.82;;;-2.20;99.90;;;;;;5089078;28;20035;-62
2023/01/24 04:24:44;;;;;;;17.85;8.95;;;-2.20;99.90;;;;;;5091216;28;20157;-62
2023/01/24 04:27:11;;;;;;;22.15;9.68;;;-2.20;99.90;;;;;;5068735;28;20585;-62
2023/01/24 04:29:59;;;;;;;22.27;9.25;;;-2.20;99.90;;;;;;5085976;28;20492;-62
2023/01/24 04:32:28;;;;;;;23.10;9.80;;;-2.20;99.90;;;;;;5108115;28;20492;-62
2023/01/24 04:34:59;;;;;;;20.63;9.38;;;-2.20;99.90;;;;;;5086484;28;20043;-62
2023/01/24 04:37:43;;;;;;;20.25;9.52;;;-2.20;99.90;;;;;;5090046;28;20121;-63
2023/01/24 04:40:13;;;;;;;19.05;9.35;;;-2.30;99.90;;;;;;5093567;28;20466;-62
2023/01/24 04:42:39;;;;;;;24.15;9.63;;;-2.20;99.90;;;;;;5099917;28;20043;-63
2023/01/24 04:45:07;;;;;;;26.35;11.02;;;-2.30;99.90;;;;;;5074102;28;20044;-63
2023/01/24 04:47:34;;;;;;;24.02;10.18;;;-2.30;99.90;;;;;;5103105;27;20488;-63
2023/01/24 04:50:00;;;;;;;23.50;9.57;;;-2.30;99.90;;;;;;5091941;28;20554;-63
2023/01/24 04:52:28;;;;;;;23.30;9.52;;;-2.30;99.90;;;;;;5090687;28;20067;-63
2023/01/24 04:55:03;;;;;;;23.63;9.35;;;-2.30;99.90;;;;;;5084592;28;20042;-63
2023/01/24 04:57:30;;;;;;;25.42;9.80;;;-2.20;99.90;;;;;;5088762;28;20047;-63
2023/01/24 04:59:58;;;;;;;19.75;9.68;;;-2.20;99.90;;;;;;5093437;28;20036;-63
2023/01/24 05:02:25;;;;;;;21.55;10.00;;;-2.30;99.90;;;;;;5082768;28;20040;-63
2023/01/24 05:04:52;;;;;;;27.05;9.98;;;-2.30;99.90;;;;;;5091502;28;20040;-63
2023/01/24 05:07:19;;;;;;;25.52;9.32;;;-2.30;99.90;;;;;;5090101;28;20047;-60
2023/01/24 05:09:53;;;;;;;25.50;10.63;;;-2.30;99.90;;;;;;5092886;28;20035;-63
2023/01/24 05:12:21;;;;;;;24.20;11.13;;;-2.20;99.90;;;;;;5089059;28;20576;-63
2023/01/24 05:14:48;;;;;;;25.48;11.43;;;-1.90;99.90;;;;;;5100571;28;20043;-63
2023/01/24 05:17:14;;;;;;;23.92;10.40;;;-2.30;99.90;;;;;;5092486;28;20039;-61
2023/01/24 05:19:42;;;;;;;29.58;11.77;;;-2.30;99.90;;;;;;5093196;28;20048;-63
2023/01/24 05:22:08;;;;;;;25.80;10.65;;;-2.30;99.90;;;;;;5088514;28;20088;-61
2023/01/24 05:24:40;;;;;;;26.40;11.00;;;-2.30;99.90;;;;;;5086148;28;20044;-63
2023/01/24 05:27:08;;;;;;;22.83;10.90;;;-2.40;99.90;;;;;;5089947;28;20051;-63
2023/01/24 05:29:38;;;;;;;29.77;11.85;;;-2.40;99.90;;;;;;5092533;28;20043;-63
2023/01/24 05:32:05;;;;;;;27.65;12.52;;;-2.40;99.90;;;;;;5089335;28;20047;-62
2023/01/24 05:34:32;;;;;;;27.45;10.63;;;-2.40;99.90;;;;;;5090080;28;20044;-63
2023/01/24 05:36:59;;;;;;;26.92;12.30;;;-2.30;99.90;;;;;;5089253;28;20051;-61
2023/01/24 05:39:25;;;;;;;27.92;11.80;;;-2.40;99.90;;;;;;5097056;28;20442;-61
2023/01/24 05:41:52;;;;;;;23.40;10.02;;;-2.40;99.90;;;;;;5102718;28;20043;-64
2023/01/24 05:44:22;;;;;;;27.80;11.02;;;-2.40;99.90;;;;;;5092469;28;20077;-61
2023/01/24 05:46:49;;;;;;;;;;;-2.40;99.90;;;;;;5099039;28;20039;-61
2023/01/24 05:49:20;;;;;;;21.95;9.50;;;-2.50;99.90;;;;;;5093779;28;20010;-61
2023/01/24 05:51:48;;;;;;;25.33;10.05;;;-2.50;99.90;;;;;;5094389;28;20035;-61
2023/01/24 05:54:25;;;;;;;24.33;10.38;;;-2.60;99.90;;;;;;5097289;28;20086;-61
2023/01/24 05:57:03;;;;;;;37.83;14.27;;;-2.60;99.90;;;;;;5083076;28;20393;-61
2023/01/24 05:59:49;;;;;;;28.27;11.85;;;-2.60;99.90;;;;;;5102630;27;20051;-61
2023/01/24 06:02:18;;;;;;;20.40;9.13;;;-2.70;99.90;;;;;;5095663;28;20039;-62
2023/01/24 06:04:45;;;;;;;33.42;12.80;;;-2.70;99.90;;;;;;5094848;28;20044;-62
2023/01/24 06:07:11;;;;;;;30.08;10.48;;;-2.70;99.90;;;;;;5095285;28;20048;-61
2023/01/24 06:09:40;;;;;;;30.85;12.43;;;-2.70;99.90;;;;;;5093049;28;20078;-63
2023/01/24 06:12:07;;;;;;;28.48;11.55;;;-2.70;99.90;;;;;;5095704;28;20389;-60
2023/01/24 06:14:34;;;;;;;29.40;12.07;;;-2.70;99.90;;;;;;5095378;28;20044;-60
2023/01/24 06:17:00;;;;;;;20.63;8.88;;;-2.80;99.90;;;;;;5103288;28;20040;-62
2023/01/24 06:19:28;;;;;;;30.40;13.43;;;-2.80;99.90;;;;;;5093040;28;20412;-62
2023/01/24 06:22:28;;;;;;;31.20;13.60;;;-2.80;99.90;;;;;;5095652;28;20055;-62
2023/01/24 06:24:55;;;;;;;28.27;12.20;;;-2.80;99.90;;;;;;5095938;28;20040;-62
2023/01/24 06:27:31;;;;;;;28.58;11.77;;;-2.80;99.90;;;;;;5111693;28;20473;-63
2023/01/24 06:29:58;;;;;;;24.65;10.70;;;-2.90;99.90;;;;;;5114154;28;20035;-63
2023/01/24 06:32:38;;;;;;;25.95;11.02;;;-2.90;99.90;;;;;;5113291;28;20044;-63
2023/01/24 06:35:39;;;;;;;29.50;11.18;;;-3.00;99.90;;;;;;5114807;28;20089;-63
2023/01/24 06:38:20;;;;;;;28.48;11.70;;;-3.00;99.90;;;;;;5099207;28;20079;-61
2023/01/24 06:40:48;;;;;;;28.52;11.60;;;-3.00;99.90;;;;;;5113834;28;20469;-61
2023/01/24 06:43:15;;;;;;;23.15;11.25;;;-3.00;99.90;;;;;;5114110;28;20040;-63
2023/01/24 06:45:42;;;;;;;35.42;12.38;;;-3.00;99.90;;;;;;5108678;27;20044;-62
2023/01/24 06:48:09;;;;;;;24.60;9.98;;;-3.00;99.90;;;;;;5113841;28;20040;-62
2023/01/24 06:50:36;;;;;;;36.45;13.57;;;-3.00;99.90;;;;;;5112623;28;20075;-63
2023/01/24 06:53:03;;;;;;;45.75;15.23;;;-3.00;99.90;;;;;;5110274;28;20043;-63
2023/01/24 06:55:30;;;;;;;41.30;16.60;;;-3.10;99.90;;;;;;5113611;28;20373;-62
2023/01/24 06:57:58;;;;;;;54.17;18.88;;;-3.10;99.90;;;;;;5112515;28;20040;-62
2023/01/24 07:00:25;;;;;;;40.20;15.13;;;-3.10;99.90;;;;;;5106408;28;20132;-63
2023/01/24 07:03:02;;;;;;;32.33;12.73;;;-3.00;99.90;;;;;;5105085;28;20244;-63
2023/01/24 07:05:29;;;;;;;27.48;11.52;;;-3.00;99.90;;;;;;5113499;28;20074;-62
2023/01/24 07:07:56;;;;;;;30.20;11.30;;;-3.00;99.90;;;;;;5113728;28;20078;-62
2023/01/24 07:10:22;;;;;;;39.17;13.13;;;-3.00;99.90;;;;;;5110611;28;20140;-62
2023/01/24 07:12:49;;;;;;;42.42;15.35;;;-3.00;99.90;;;;;;5124652;27;20122;-62
2023/01/24 07:15:16;;;;;;;35.28;13.95;;;-3.00;99.90;;;;;;5120087;27;20078;-62
2023/01/24 07:17:43;;;;;;;28.58;11.68;;;-3.10;99.90;;;;;;5113331;28;20051;-62
2023/01/24 07:20:12;;;;;;;26.70;10.77;;;-3.10;99.90;;;;;;5113278;28;20059;-62
2023/01/24 07:22:40;;;;;;;27.73;11.55;;;-3.00;99.90;;;;;;5110612;28;20100;-62
2023/01/24 07:25:13;;;;;;;26.25;9.85;;;-3.00;99.90;;;;;;5113233;28;20131;-62
2023/01/24 07:27:42;;;;;;;30.45;11.43;;;-3.00;99.90;;;;;;5112247;28;20047;-62
2023/01/24 07:34:21;;;;;;;29.42;11.25;;;-3.00;99.90;;;;;;5066378;28;20476;-56
2023/01/24 07:36:48;;;;;;;30.55;11.52;;;-3.10;99.90;;;;;;5069696;28;20550;-56
2023/01/24 07:39:15;;;;;;;26.48;11.57;;;-3.10;99.90;;;;;;5099571;27;20079;-55
2023/01/24 07:41:43;;;;;;;28.77;11.27;;;-3.10;99.90;;;;;;5123743;27;20767;-56
2023/01/24 07:44:13;;;;;;;26.27;12.00;;;-3.00;99.90;;;;;;5113029;27;20043;-53
2023/01/24 07:46:39;;;;;;;25.98;10.57;;;-3.00;99.90;;;;;;5132139;27;20043;-57
2023/01/24 07:49:06;;;;;;;25.88;11.05;;;-3.00;99.90;;;;;;5133380;27;20047;-55
2023/01/24 07:51:33;;;;;;;;;;;-3.00;99.90;;;;;;5130712;27;20058;-56
2023/01/24 07:54:00;;;;;;;30.73;11.45;;;-2.90;99.90;;;;;;5111390;27;19954;-55
2023/01/24 07:56:27;;;;;;;22.70;9.75;;;-2.90;99.90;;;;;;5133075;27;20457;-55
2023/01/24 07:58:55;;;;;;;22.58;7.53;;;-3.00;99.90;;;;;;5132906;27;20043;-57
2023/01/24 08:01:23;;;;;;;27.52;10.77;;;-3.00;99.90;;;;;;5127494;27;20039;-54
2023/01/24 08:03:53;;;;;;;28.05;10.77;;;-2.90;99.90;;;;;;5132540;27;20042;-56
2023/01/24 08:06:20;;;;;;;26.38;11.50;;;-2.90;99.90;;;;;;5132642;27;20039;-55
2023/01/24 08:08:46;;;;;;;18.38;8.50;;;-2.90;99.90;;;;;;5133040;27;20052;-55
2023/01/24 08:11:17;;;;;;;35.33;11.85;;;-2.90;99.90;;;;;;5109888;27;20073;-56
2023/01/24 08:13:44;;;;;;;46.08;14.50;;;-2.90;99.90;;;;;;5125942;27;20039;-53
2023/01/24 08:16:11;;;;;;;;;;;-2.80;99.90;;;;;;5129022;27;20031;-56
2023/01/24 08:18:39;;;;;;;35.75;13.10;;;-2.80;99.90;;;;;;5132673;27;20364;-55
2023/01/24 08:21:06;;;;;;;35.22;12.32;;;-2.70;99.90;;;;;;5132400;27;20072;-55
2023/01/24 08:23:33;;;;;;;30.50;12.02;;;-2.60;99.90;;;;;;5125091;27;20478;-56
2023/01/24 08:26:01;;;;;;;30.45;13.13;;;-2.50;99.90;;;;;;5123915;27;20031;-56
2023/01/24 08:28:29;;;;;;;31.70;13.27;;;-2.40;99.90;;;;;;5131373;27;20495;-56
2023/01/24 08:30:57;;;;;;;35.00;13.80;;;-2.40;99.90;;;;;;5131039;27;20244;-56
2023/01/24 08:33:24;;;;;;;37.75;14.07;;;-2.30;99.90;;;;;;5130790;27;20499;-56
2023/01/24 08:35:51;;;;;;;28.38;13.23;;;-2.30;99.90;;;;;;5122848;27;20084;-55
2023/01/24 08:38:18;;;;;;;33.80;12.65;;;-2.20;99.90;;;;;;5132520;27;20118;-53
2023/01/24 08:40:44;;;;;;;27.67;12.23;;;-2.10;99.90;;;;;;5113911;27;20043;-55
2023/01/24 08:43:17;;;;;;;28.65;12.23;;;-2.10;99.90;;;;;;5129954;27;20126;-56
2023/01/24 08:45:44;;;;;;;28.65;11.57;;;-2.00;99.90;;;;;;5131792;27;20201;-57
2023/01/24 08:48:10;;;;;;;28.50;12.82;;;-1.90;99.90;;;;;;5132269;27;20097;-55
2023/01/24 08:50:37;;;;;;;26.23;12.07;;;-1.90;99.90;;;;;;5132309;27;20035;-55
2023/01/24 08:53:04;;;;;;;29.08;12.57;;;-1.80;99.90;;;;;;5137581;27;20039;-56
2023/01/24 08:55:31;;;;;;;24.38;11.80;;;-1.80;99.90;;;;;;5152837;27;20038;-56
2023/01/24 08:58:03;;;;;;;26.77;10.88;;;-1.60;99.90;;;;;;5152692;27;20358;-54
2023/01/24 09:00:30;;;;;;;32.40;11.65;;;-1.50;99.90;;;;;;5141151;27;20650;-55
2023/01/24 09:03:00;;;;;;;;;;;-1.50;99.90;;;;;;5131776;27;20043;-56
2023/01/24 09:05:28;;;;;;;21.88;10.63;;;-1.30;99.90;;;;;;5132199;27;19919;-55
2023/01/24 09:07:56;;;;;;;28.15;11.30;;;-1.20;99.90;;;;;;5132219;28;20039;-55
2023/01/24 09:10:23;;;;;;;32.83;12.60;;;-1.20;99.90;;;;;;5126669;28;20039;-55
2023/01/24 09:12:49;;;;;;;27.48;12.10;;;-1.10;99.90;;;;;;5132944;27;20450;-55
2023/01/24 09:15:16;;;;;;;26.52;11.10;;;-1.00;99.90;;;;;;5136029;27;20123;-56
2023/01/24 09:17:44;;;;;;;24.08;11.15;;;-0.90;99.90;;;;;;5136513;27;20423;-56
2023/01/24 09:20:11;;;;;;;30.05;11.73;;;-1.00;99.90;;;;;;5119818;27;20073;-55
2023/01/24 09:22:38;;;;;;;;;;;-1.00;99.90;;;;;;5135930;27;20035;-56
2023/01/24 09:25:07;;;;;;;29.95;11.68;;;-1.00;99.90;;;;;;5135588;27;20392;-55
2023/01/24 09:27:35;;;;;;;30.70;11.43;;;-1.00;99.90;;;;;;5129780;27;20386;-55
2023/01/24 09:30:04;;;;;;;30.27;13.27;;;-1.10;99.90;;;;;;5136008;27;20031;-55
2023/01/24 09:32:31;;;;;;;24.33;11.05;;;-1.10;99.90;;;;;;5135097;27;20460;-57
2023/01/24 09:34:58;;;;;;;29.25;12.27;;;-1.00;99.90;;;;;;5136288;27;20047;-56
2023/01/24 09:37:26;;;;;;;26.98;12.25;;;-0.70;99.90;;;;;;5128973;27;20445;-58
2023/01/24 09:39:57;;;;;;;31.67;12.25;;;-0.50;99.90;;;;;;5136061;27;20047;-57
2023/01/24 09:42:44;;;;;;;26.70;11.73;;;-0.30;99.90;;;;;;5135293;27;20053;-57
2023/01/24 09:45:15;;;;;;;22.97;9.53;;;-0.10;99.90;;;;;;5118880;27;20469;-53
2023/01/24 09:47:55;;;;;;;36.95;13.75;;;-0.10;99.90;;;;;;5131321;27;20047;-54
2023/01/24 09:50:31;;;;;;;;;;;0.00;99.90;;;;;;5136111;27;20035;-57
2023/01/24 09:52:58;;;;;;;29.02;13.02;;;0.00;99.90;;;;;;5135058;27;19920;-56
2023/01/24 09:55:33;;;;;;;29.20;13.57;;;-0.10;99.90;;;;;;5135549;27;20046;-56
2023/01/24 09:58:26;;;;;;;36.75;13.27;;;-0.20;99.90;;;;;;5131024;27;20035;-56
2023/01/24 10:00:53;;;;;;;34.03;13.40;;;-0.30;99.90;;;;;;5135380;27;20092;-55
2023/01/24 10:03:22;;;;;;;32.33;13.95;;;-0.40;99.90;;;;;;5133421;27;20092;-55
2023/01/24 10:05:58;;;;;;;31.30;14.23;;;-0.30;99.90;;;;;;5130749;27;20035;-57
2023/01/24 10:08:44;;;;;;;30.98;12.68;;;-0.20;99.90;;;;;;5135332;27;20060;-56
2023/01/24 10:11:47;;;;;;;33.38;13.77;;;-0.30;99.90;;;;;;5134653;27;20112;-56
2023/01/24 10:14:25;;;;;;;36.17;14.63;;;-0.40;99.90;;;;;;5125857;27;20165;-56
2023/01/24 10:16:55;;;;;;;29.10;13.80;;;-0.40;99.90;;;;;;5126918;27;20068;-56
2023/01/24 10:19:39;;;;;;;31.88;14.38;;;-0.40;99.90;;;;;;5134185;27;20047;-55
2023/01/24 10:22:29;;;;;;;31.98;14.23;;;-0.20;99.90;;;;;;5134924;27;20047;-56
2023/01/24 10:25:27;;;;;;;34.95;14.65;;;0.10;99.90;;;;;;5127050;27;20072;-57
2023/01/24 10:27:59;;;;;;;37.17;14.48;;;0.30;99.90;;;;;;5100228;27;20099;-57
2023/01/24 10:30:56;;;;;;;36.20;14.73;;;0.30;99.90;;;;;;5123697;27;20043;-55
2023/01/24 10:33:29;;;;;;;36.05;14.88;;;0.40;99.90;;;;;;5133460;27;20049;-57
2023/01/24 10:36:05;;;;;;;35.97;15.63;;;0.40;99.90;;;;;;5134607;27;20091;-57
2023/01/24 10:38:32;;;;;;;35.22;15.25;;;0.50;99.90;;;;;;5129248;27;20076;-58
2023/01/24 10:41:21;;;;;;;34.90;15.68;;;0.40;99.90;;;;;;5134758;27;20043;-56
2023/01/24 10:43:54;;;;;;;34.80;15.23;;;0.40;99.90;;;;;;5134506;27;20118;-57
2023/01/24 10:46:53;;;;;;;35.25;15.85;;;0.20;99.90;;;;;;5128737;27;20325;-57
2023/01/24 10:49:34;;;;;;;36.65;15.52;;;0.00;99.90;;;;;;5134199;27;20084;-56
2023/01/24 10:52:16;;;;;;;37.83;15.70;;;-0.20;99.90;;;;;;5131391;27;20039;-55
2023/01/24 10:54:55;;;;;;;36.15;15.98;;;-0.20;99.90;;;;;;5134296;27;20043;-54
2023/01/24 10:57:29;;;;;;;34.75;16.33;;;-0.30;99.90;;;;;;5133594;27;20108;-57
2023/01/24 11:00:00;;;;;;;37.17;16.88;;;-0.20;99.90;;;;;;5128906;27;20040;-57
2023/01/24 11:02:34;;;;;;;37.72;15.35;;;-0.20;99.90;;;;;;5133718;27;20042;-55
2023/01/24 11:05:06;;;;;;;34.30;15.65;;;-0.20;99.90;;;;;;5134401;27;20043;-56
2023/01/24 11:07:39;;;;;;;39.25;16.30;;;-0.10;99.90;;;;;;5130910;27;20039;-56
2023/01/24 11:10:17;;;;;;;49.17;18.10;;;0.20;99.90;;;;;;5134090;27;20453;-56
2023/01/24 11:12:54;;;;;;;40.28;17.63;;;0.50;99.90;;;;;;5133896;27;20095;-55
2023/01/24 11:15:35;;;;;;;41.38;17.30;;;0.70;99.90;;;;;;5130254;27;20051;-56
2023/01/24 11:18:15;;;;;;;45.40;18.80;;;0.80;99.90;;;;;;5134409;27;20082;-56
2023/01/24 11:20:44;;;;;;;38.10;17.50;;;0.90;99.90;;;;;;5133880;27;20484;-57
2023/01/24 11:23:11;;;;;;;38.30;16.92;;;1.00;99.90;;;;;;5130466;27;20045;-56
2023/01/24 11:25:52;;;;;;;32.35;16.25;;;0.90;99.90;;;;;;5145907;27;20038;-56
2023/01/24 11:28:33;;;;;;;46.83;17.40;;;0.80;99.90;;;;;;5154025;27;20038;-54
2023/01/24 11:31:06;;;;;;;39.55;16.52;;;0.70;99.90;;;;;;5151108;27;20322;-55
2023/01/24 11:33:58;;;;;;;39.03;17.00;;;0.80;99.90;;;;;;5137932;27;20540;-57
2023/01/24 11:36:40;;;;;;;37.40;16.67;;;0.90;99.90;;;;;;5116410;27;20047;-56
2023/01/24 11:39:45;;;;;;;45.40;19.05;;;1.00;99.90;;;;;;5142834;27;20551;-57
2023/01/24 11:42:33;;;;;;;34.70;15.55;;;1.00;99.90;;;;;;5111884;28;20086;-56
2023/01/24 11:45:22;;;;;;;42.10;16.33;;;1.00;99.90;;;;;;5113146;28;20043;-57
2023/01/24 11:47:52;;;;;;;35.58;16.42;;;0.90;99.90;;;;;;5115640;27;20038;-58
2023/01/24 11:50:28;;;;;;;39.05;16.50;;;0.90;99.90;;;;;;5128788;27;20101;-57
2023/01/24 11:53:08;;;;;;;45.90;17.13;;;1.00;99.90;;;;;;5132619;27;20458;-57
2023/01/24 11:55:43;;;;;;;47.97;18.02;;;1.00;99.90;;;;;;5133051;27;20043;-57
2023/01/24 11:58:30;;;;;;;38.42;17.40;;;1.00;99.90;;;;;;5131485;27;20399;-55
2023/01/24 12:01:32;;;;;;;39.15;16.60;;;1.00;99.90;;;;;;5120990;27;20384;-56
2023/01/24 12:04:11;;;;;;;40.97;15.80;;;1.10;99.90;;;;;;5132714;27;20082;-57
2023/01/24 12:07:17;;;;;;;39.20;16.50;;;1.20;99.90;;;;;;5133268;27;20072;-57
2023/01/24 12:09:58;;;;;;;40.45;17.50;;;1.10;99.90;;;;;;5121566;27;20055;-57
2023/01/24 12:12:34;;;;;;;39.50;17.63;;;1.10;99.90;;;;;;5132607;27;20399;-57
2023/01/24 12:15:27;;;;;;;39.10;16.80;;;1.20;99.90;;;;;;5132787;27;20134;-58
2023/01/24 12:18:06;;;;;;;36.65;17.55;;;1.30;99.90;;;;;;5131354;27;20039;-57
2023/01/24 12:20:51;;;;;;;42.53;17.88;;;1.40;99.90;;;;;;5153365;27;20047;-58
2023/01/24 12:23:32;;;;;;;37.35;16.88;;;1.60;99.90;;;;;;5152156;27;20083;-57
2023/01/24 12:26:11;;;;;;;39.72;16.08;;;1.60;99.90;;;;;;5144328;27;20118;-57
2023/01/24 12:28:45;;;;;;;36.42;18.02;;;1.60;99.90;;;;;;5119777;27;20553;-58
2023/01/24 12:31:18;;;;;;;36.22;16.45;;;1.30;99.90;;;;;;5128719;27;20043;-56
2023/01/24 12:33:54;;;;;;;39.67;15.43;;;1.30;99.90;;;;;;5139917;27;20051;-58
2023/01/24 12:36:37;;;;;;;40.58;16.90;;;1.30;99.90;;;;;;5132126;27;20108;-58
2023/01/24 12:39:19;;;;;;;38.90;15.30;;;1.30;99.90;;;;;;5138772;27;20454;-57
2023/01/24 12:41:56;;;;;;;43.45;16.75;;;1.30;99.90;;;;;;5131937;27;20089;-58
2023/01/24 12:44:25;;;;;;;35.20;16.10;;;1.40;99.90;;;;;;5129063;27;20438;-57
2023/01/24 12:47:34;;;;;;;39.95;16.13;;;1.40;99.90;;;;;;5131027;27;20050;-57
2023/01/24 12:50:38;;;;;;;40.10;17.15;;;1.30;99.90;;;;;;5118739;27;20104;-56
2023/01/24 12:53:23;;;;;;;41.95;15.75;;;1.20;99.90;;;;;;5130468;27;20085;-57
2023/01/24 12:56:14;;;;;;;35.40;15.27;;;1.20;99.90;;;;;;5131523;27;20051;-57
2023/01/24 12:58:45;;;;;;;33.63;15.55;;;1.20;99.90;;;;;;5131623;27;20039;-57
2023/01/24 13:01:41;;;;;;;34.78;16.20;;;1.10;99.90;;;;;;5132059;27;20039;-56
2023/01/24 13:04:30;;;;;;;37.78;16.05;;;1.20;99.90;;;;;;5132118;27;20039;-56
2023/01/24 13:07:05;;;;;;;37.38;15.75;;;1.30;99.90;;;;;;5124333;28;20039;-56
2023/01/24 13:09:56;;;;;;;34.83;15.95;;;1.20;99.90;;;;;;5129808;28;20055;-58
2023/01/24 13:12:27;;;;;;;44.35;16.55;;;1.40;99.90;;;;;;5131584;28;20092;-57
2023/01/24 13:15:09;;;;;;;34.40;15.43;;;1.50;99.90;;;;;;5110423;28;20067;-58
2023/01/24 13:18:16;;;;;;;35.63;15.95;;;1.60;99.90;;;;;;5111610;28;20044;-57
2023/01/24 13:20:49;;;;;;;34.25;16.38;;;1.50;99.90;;;;;;5130136;27;20105;-58
2023/01/24 13:23:26;;;;;;;39.17;16.08;;;1.50;99.90;;;;;;5130340;28;20039;-58
2023/01/24 13:26:06;;;;;;;40.28;16.27;;;1.50;99.90;;;;;;5111053;28;20039;-57
2023/01/24 13:28:38;;;;;;;35.10;15.45;;;1.60;99.90;;;;;;5111234;28;20450;-53
2023/01/24 13:32:06;;;;;;;36.38;15.68;;;1.50;99.90;;;;;;5104161;28;20173;-62
2023/01/24 13:34:49;;;;;;;38.97;15.18;;;1.50;99.90;;;;;;5108065;28;20138;-62
2023/01/24 13:37:21;;;;;;;40.58;15.80;;;1.50;99.90;;;;;;5111367;28;20433;-63
2023/01/24 13:39:57;;;;;;;35.10;16.13;;;1.40;99.90;;;;;;5110321;28;20448;-62
2023/01/24 13:42:33;;;;;;;43.15;17.08;;;1.40;99.90;;;;;;5110746;28;20097;-62
2023/01/24 13:45:22;;;;;;;38.35;16.65;;;1.40;99.90;;;;;;5100839;28;20036;-62